Grizzly Air Cargo 5370


PAKN
King Salmon Airport
King Salmon, Alaska, US
PACD
Cold Bay Airport
Cold Bay, Alaska, US

Activity Log

Date Flight Route Aircraft Duration
No Flights Yet

Route Details

Aircraft Information
Primary: Saab 340AF
Backup: Not Available
Route Data
Distance: 302nm
Sched. Duration: 1h 50m
Avg. Duration: 0h 00m (-150m)
Times Flown: 0
Recm'd Route: AKN J115 CDB
Planned Altitude: 24,000ft
Origin Wx: PAKN 312154Z 35012G18KT 10SM CLR M04/M10 A3005 RMK AO2 SLP176 T10441100 $
Dest. Wx: PACD 312153Z AUTO 01014G21KT 10SM CLR 03/M03 A3004 RMK AO2 SLP172 T00331033 TSNO
Notes:

Financial History
Total Freight: 0lbs
Average Load: 0lbs/flt
Fuel Used: 0lbs
Avg. Fuel Used: 0lbs/flt
Fuel Expense: $0
Avg. Fuel Expense: $0
Avg. Fuel Cost: $0/lbs
Total Gross Income: $0
Pilot Pay: $0
Total Expenses: $0
Total Revenue: $0
Average Revenue: $0